sensor_id;sensor_type;location;lat;lon;timestamp;P1;durP1;ratioP1;P2;durP2;ratioP2
68196;SDS011;55019;49.382;11.358;2022-08-14T00:00:20;5.97;;;5.53;;
68196;SDS011;55019;49.382;11.358;2022-08-14T00:02:46;5.38;;;4.97;;
68196;SDS011;55019;49.382;11.358;2022-08-14T00:05:14;5.68;;;5.28;;
68196;SDS011;55019;49.382;11.358;2022-08-14T00:07:41;6.23;;;5.73;;
68196;SDS011;55019;49.382;11.358;2022-08-14T00:10:09;5.05;;;4.63;;
68196;SDS011;55019;49.382;11.358;2022-08-14T00:12:38;6.18;;;5.40;;
68196;SDS011;55019;49.382;11.358;2022-08-14T00:15:11;6.30;;;5.80;;
68196;SDS011;55019;49.382;11.358;2022-08-14T00:17:40;7.20;;;5.28;;
68196;SDS011;55019;49.382;11.358;2022-08-14T00:20:06;6.57;;;5.00;;
68196;SDS011;55019;49.382;11.358;2022-08-14T00:22:32;5.95;;;5.45;;
68196;SDS011;55019;49.382;11.358;2022-08-14T00:24:58;6.03;;;5.50;;
68196;SDS011;55019;49.382;11.358;2022-08-14T00:27:24;5.90;;;5.50;;
68196;SDS011;55019;49.382;11.358;2022-08-14T00:29:50;6.93;;;5.73;;
68196;SDS011;55019;49.382;11.358;2022-08-14T00:32:15;6.30;;;5.70;;
68196;SDS011;55019;49.382;11.358;2022-08-14T00:34:40;6.50;;;5.87;;
68196;SDS011;55019;49.382;11.358;2022-08-14T00:37:06;6.30;;;5.50;;
68196;SDS011;55019;49.382;11.358;2022-08-14T00:39:32;6.03;;;5.53;;
68196;SDS011;55019;49.382;11.358;2022-08-14T00:41:57;5.53;;;4.73;;
68196;SDS011;55019;49.382;11.358;2022-08-14T00:44:23;9.37;;;6.10;;
68196;SDS011;55019;49.382;11.358;2022-08-14T00:46:48;7.05;;;6.15;;
68196;SDS011;55019;49.382;11.358;2022-08-14T00:49:14;6.50;;;5.90;;
68196;SDS011;55019;49.382;11.358;2022-08-14T00:51:40;6.30;;;5.80;;
68196;SDS011;55019;49.382;11.358;2022-08-14T00:54:08;6.07;;;5.57;;
68196;SDS011;55019;49.382;11.358;2022-08-14T00:56:34;5.90;;;5.45;;
68196;SDS011;55019;49.382;11.358;2022-08-14T00:59:01;6.07;;;5.53;;
68196;SDS011;55019;49.382;11.358;2022-08-14T01:01:29;6.60;;;5.73;;
68196;SDS011;55019;49.382;11.358;2022-08-14T01:03:57;6.07;;;5.57;;
68196;SDS011;55019;49.382;11.358;2022-08-14T01:06:25;6.70;;;6.05;;
68196;SDS011;55019;49.382;11.358;2022-08-14T01:08:52;6.15;;;5.65;;
68196;SDS011;55019;49.382;11.358;2022-08-14T01:11:19;6.28;;;5.78;;
68196;SDS011;55019;49.382;11.358;2022-08-14T01:13:45;6.63;;;6.03;;
68196;SDS011;55019;49.382;11.358;2022-08-14T01:16:13;5.55;;;5.15;;
68196;SDS011;55019;49.382;11.358;2022-08-14T01:18:40;5.63;;;5.13;;
68196;SDS011;55019;49.382;11.358;2022-08-14T01:21:35;6.32;;;5.82;;
68196;SDS011;55019;49.382;11.358;2022-08-14T01:24:03;6.23;;;5.63;;
68196;SDS011;55019;49.382;11.358;2022-08-14T01:26:29;5.93;;;5.43;;
68196;SDS011;55019;49.382;11.358;2022-08-14T01:28:56;6.43;;;5.88;;
68196;SDS011;55019;49.382;11.358;2022-08-14T01:31:24;7.03;;;6.43;;
68196;SDS011;55019;49.382;11.358;2022-08-14T01:33:52;6.60;;;6.10;;
68196;SDS011;55019;49.382;11.358;2022-08-14T01:36:20;5.78;;;5.38;;
68196;SDS011;55019;49.382;11.358;2022-08-14T01:38:48;7.15;;;6.40;;
68196;SDS011;55019;49.382;11.358;2022-08-14T01:41:16;7.40;;;6.60;;
68196;SDS011;55019;49.382;11.358;2022-08-14T01:44:00;6.70;;;6.20;;
68196;SDS011;55019;49.382;11.358;2022-08-14T01:46:29;6.40;;;5.87;;
68196;SDS011;55019;49.382;11.358;2022-08-14T01:48:58;6.30;;;5.80;;
68196;SDS011;55019;49.382;11.358;2022-08-14T01:51:25;6.82;;;6.22;;
68196;SDS011;55019;49.382;11.358;2022-08-14T01:54:03;6.60;;;6.10;;
68196;SDS011;55019;49.382;11.358;2022-08-14T01:56:31;6.82;;;6.20;;
68196;SDS011;55019;49.382;11.358;2022-08-14T01:59:09;7.90;;;7.20;;
68196;SDS011;55019;49.382;11.358;2022-08-14T02:01:46;8.02;;;6.40;;
68196;SDS011;55019;49.382;11.358;2022-08-14T02:04:15;6.85;;;6.25;;
68196;SDS011;55019;49.382;11.358;2022-08-14T02:06:41;6.30;;;5.80;;
68196;SDS011;55019;49.382;11.358;2022-08-14T02:09:08;7.65;;;6.93;;
68196;SDS011;55019;49.382;11.358;2022-08-14T02:11:34;6.70;;;6.20;;
68196;SDS011;55019;49.382;11.358;2022-08-14T02:14:01;7.10;;;6.40;;
68196;SDS011;55019;49.382;11.358;2022-08-14T02:16:32;6.60;;;6.00;;
68196;SDS011;55019;49.382;11.358;2022-08-14T02:19:02;6.70;;;6.10;;
68196;SDS011;55019;49.382;11.358;2022-08-14T02:21:39;6.47;;;5.90;;
68196;SDS011;55019;49.382;11.358;2022-08-14T02:24:06;7.50;;;6.38;;
68196;SDS011;55019;49.382;11.358;2022-08-14T02:26:33;9.50;;;6.25;;
68196;SDS011;55019;49.382;11.358;2022-08-14T02:29:02;7.00;;;6.40;;
68196;SDS011;55019;49.382;11.358;2022-08-14T02:31:31;7.90;;;6.07;;
68196;SDS011;55019;49.382;11.358;2022-08-14T02:33:59;6.10;;;5.50;;
68196;SDS011;55019;49.382;11.358;2022-08-14T02:36:27;7.10;;;6.50;;
68196;SDS011;55019;49.382;11.358;2022-08-14T02:38:53;7.07;;;6.22;;
68196;SDS011;55019;49.382;11.358;2022-08-14T02:41:19;7.40;;;6.60;;
68196;SDS011;55019;49.382;11.358;2022-08-14T02:43:44;6.90;;;6.30;;
68196;SDS011;55019;49.382;11.358;2022-08-14T02:46:10;7.63;;;6.70;;
68196;SDS011;55019;49.382;11.358;2022-08-14T02:48:37;6.97;;;6.38;;
68196;SDS011;55019;49.382;11.358;2022-08-14T02:51:10;7.20;;;6.60;;
68196;SDS011;55019;49.382;11.358;2022-08-14T02:53:38;8.88;;;6.60;;
68196;SDS011;55019;49.382;11.358;2022-08-14T02:56:09;8.77;;;6.47;;
68196;SDS011;55019;49.382;11.358;2022-08-14T02:58:39;6.87;;;6.13;;
68196;SDS011;55019;49.382;11.358;2022-08-14T03:01:08;7.05;;;6.28;;
68196;SDS011;55019;49.382;11.358;2022-08-14T03:03:34;7.30;;;6.70;;
68196;SDS011;55019;49.382;11.358;2022-08-14T03:06:02;7.40;;;6.45;;
68196;SDS011;55019;49.382;11.358;2022-08-14T03:08:33;7.22;;;6.50;;
68196;SDS011;55019;49.382;11.358;2022-08-14T03:11:01;6.60;;;5.77;;
68196;SDS011;55019;49.382;11.358;2022-08-14T03:13:46;6.95;;;6.25;;
68196;SDS011;55019;49.382;11.358;2022-08-14T03:16:15;8.20;;;6.55;;
68196;SDS011;55019;49.382;11.358;2022-08-14T03:18:43;8.20;;;6.68;;
68196;SDS011;55019;49.382;11.358;2022-08-14T03:21:11;6.80;;;6.20;;
68196;SDS011;55019;49.382;11.358;2022-08-14T03:23:45;6.47;;;5.97;;
68196;SDS011;55019;49.382;11.358;2022-08-14T03:26:13;11.57;;;6.57;;
68196;SDS011;55019;49.382;11.358;2022-08-14T03:28:44;7.38;;;6.68;;
68196;SDS011;55019;49.382;11.358;2022-08-14T03:31:11;7.25;;;6.45;;
68196;SDS011;55019;49.382;11.358;2022-08-14T03:33:37;6.17;;;5.67;;
68196;SDS011;55019;49.382;11.358;2022-08-14T03:36:09;7.28;;;6.55;;
68196;SDS011;55019;49.382;11.358;2022-08-14T03:38:38;7.60;;;6.22;;
68196;SDS011;55019;49.382;11.358;2022-08-14T03:41:07;7.00;;;6.10;;
68196;SDS011;55019;49.382;11.358;2022-08-14T03:43:39;6.75;;;6.20;;
68196;SDS011;55019;49.382;11.358;2022-08-14T03:46:09;7.68;;;6.97;;
68196;SDS011;55019;49.382;11.358;2022-08-14T03:48:35;7.13;;;6.43;;
68196;SDS011;55019;49.382;11.358;2022-08-14T03:51:09;6.75;;;6.18;;
68196;SDS011;55019;49.382;11.358;2022-08-14T03:53:36;7.47;;;6.00;;
68196;SDS011;55019;49.382;11.358;2022-08-14T03:56:09;6.22;;;5.72;;
68196;SDS011;55019;49.382;11.358;2022-08-14T03:58:51;6.90;;;6.18;;
68196;SDS011;55019;49.382;11.358;2022-08-14T04:01:22;7.45;;;6.85;;
68196;SDS011;55019;49.382;11.358;2022-08-14T04:03:49;6.72;;;6.05;;
68196;SDS011;55019;49.382;11.358;2022-08-14T04:06:16;8.47;;;6.80;;
68196;SDS011;55019;49.382;11.358;2022-08-14T04:08:45;7.78;;;6.95;;
68196;SDS011;55019;49.382;11.358;2022-08-14T04:11:10;7.53;;;6.93;;
68196;SDS011;55019;49.382;11.358;2022-08-14T04:13:37;8.18;;;7.38;;
68196;SDS011;55019;49.382;11.358;2022-08-14T04:16:08;8.47;;;7.73;;
68196;SDS011;55019;49.382;11.358;2022-08-14T04:18:43;8.60;;;7.80;;
68196;SDS011;55019;49.382;11.358;2022-08-14T04:21:11;10.05;;;7.30;;
68196;SDS011;55019;49.382;11.358;2022-08-14T04:23:38;10.63;;;7.90;;
68196;SDS011;55019;49.382;11.358;2022-08-14T04:26:09;8.07;;;7.35;;
68196;SDS011;55019;49.382;11.358;2022-08-14T04:28:38;7.93;;;7.20;;
68196;SDS011;55019;49.382;11.358;2022-08-14T04:31:07;7.70;;;7.00;;
68196;SDS011;55019;49.382;11.358;2022-08-14T04:33:33;7.90;;;7.20;;
68196;SDS011;55019;49.382;11.358;2022-08-14T04:36:00;8.07;;;7.28;;
68196;SDS011;55019;49.382;11.358;2022-08-14T04:38:25;8.27;;;7.40;;
68196;SDS011;55019;49.382;11.358;2022-08-14T04:41:10;7.93;;;7.10;;
68196;SDS011;55019;49.382;11.358;2022-08-14T04:43:53;8.70;;;7.25;;
68196;SDS011;55019;49.382;11.358;2022-08-14T04:46:20;8.63;;;7.77;;
68196;SDS011;55019;49.382;11.358;2022-08-14T04:48:47;7.57;;;6.88;;
68196;SDS011;55019;49.382;11.358;2022-08-14T04:51:13;8.02;;;7.22;;
68196;SDS011;55019;49.382;11.358;2022-08-14T04:53:41;7.88;;;6.97;;
68196;SDS011;55019;49.382;11.358;2022-08-14T04:56:09;8.30;;;7.50;;
68196;SDS011;55019;49.382;11.358;2022-08-14T04:58:37;7.22;;;6.53;;
68196;SDS011;55019;49.382;11.358;2022-08-14T05:01:09;8.13;;;6.75;;
68196;SDS011;55019;49.382;11.358;2022-08-14T05:03:39;7.65;;;6.60;;
68196;SDS011;55019;49.382;11.358;2022-08-14T05:06:08;7.40;;;6.75;;
68196;SDS011;55019;49.382;11.358;2022-08-14T05:08:35;7.70;;;7.00;;
68196;SDS011;55019;49.382;11.358;2022-08-14T05:11:02;7.65;;;6.95;;
68196;SDS011;55019;49.382;11.358;2022-08-14T05:13:40;8.27;;;6.30;;
68196;SDS011;55019;49.382;11.358;2022-08-14T05:16:07;6.45;;;5.95;;
68196;SDS011;55019;49.382;11.358;2022-08-14T05:18:35;8.52;;;6.22;;
68196;SDS011;55019;49.382;11.358;2022-08-14T05:21:03;6.03;;;5.43;;
68196;SDS011;55019;49.382;11.358;2022-08-14T05:23:34;6.85;;;6.25;;
68196;SDS011;55019;49.382;11.358;2022-08-14T05:26:02;6.82;;;6.07;;
68196;SDS011;55019;49.382;11.358;2022-08-14T05:28:46;6.63;;;6.07;;
68196;SDS011;55019;49.382;11.358;2022-08-14T05:31:13;6.72;;;6.10;;
68196;SDS011;55019;49.382;11.358;2022-08-14T05:33:43;6.40;;;5.80;;
68196;SDS011;55019;49.382;11.358;2022-08-14T05:36:09;6.28;;;5.75;;
68196;SDS011;55019;49.382;11.358;2022-08-14T05:38:37;5.88;;;5.30;;
68196;SDS011;55019;49.382;11.358;2022-08-14T05:41:12;6.43;;;5.82;;
68196;SDS011;55019;49.382;11.358;2022-08-14T05:43:43;5.97;;;5.47;;
68196;SDS011;55019;49.382;11.358;2022-08-14T05:46:11;6.83;;;6.23;;
68196;SDS011;55019;49.382;11.358;2022-08-14T05:48:39;5.97;;;5.40;;
68196;SDS011;55019;49.382;11.358;2022-08-14T05:51:10;6.23;;;5.20;;
68196;SDS011;55019;49.382;11.358;2022-08-14T05:53:36;6.90;;;6.18;;
68196;SDS011;55019;49.382;11.358;2022-08-14T05:56:01;6.45;;;5.95;;
68196;SDS011;55019;49.382;11.358;2022-08-14T05:58:27;7.07;;;6.37;;
68196;SDS011;55019;49.382;11.358;2022-08-14T06:00:52;6.60;;;6.00;;
68196;SDS011;55019;49.382;11.358;2022-08-14T06:03:20;6.13;;;5.63;;
68196;SDS011;55019;49.382;11.358;2022-08-14T06:05:53;6.43;;;5.93;;
68196;SDS011;55019;49.382;11.358;2022-08-14T06:08:20;6.47;;;5.97;;
68196;SDS011;55019;49.382;11.358;2022-08-14T06:10:51;7.10;;;6.30;;
68196;SDS011;55019;49.382;11.358;2022-08-14T06:13:19;5.70;;;5.20;;
68196;SDS011;55019;49.382;11.358;2022-08-14T06:15:46;6.07;;;5.57;;
68196;SDS011;55019;49.382;11.358;2022-08-14T06:18:14;7.40;;;6.65;;
68196;SDS011;55019;49.382;11.358;2022-08-14T06:20:40;6.70;;;6.10;;
68196;SDS011;55019;49.382;11.358;2022-08-14T06:23:05;6.60;;;6.00;;
68196;SDS011;55019;49.382;11.358;2022-08-14T06:25:32;6.88;;;6.28;;
68196;SDS011;55019;49.382;11.358;2022-08-14T06:27:57;7.10;;;5.93;;
68196;SDS011;55019;49.382;11.358;2022-08-14T06:30:24;6.40;;;5.80;;
68196;SDS011;55019;49.382;11.358;2022-08-14T06:32:51;7.23;;;5.93;;
68196;SDS011;55019;49.382;11.358;2022-08-14T06:35:17;6.30;;;5.70;;
68196;SDS011;55019;49.382;11.358;2022-08-14T06:40:24;6.85;;;6.32;;
68196;SDS011;55019;49.382;11.358;2022-08-14T06:42:59;7.85;;;6.35;;
68196;SDS011;55019;49.382;11.358;2022-08-14T06:45:30;6.20;;;5.70;;
68196;SDS011;55019;49.382;11.358;2022-08-14T06:47:56;7.72;;;6.90;;
68196;SDS011;55019;49.382;11.358;2022-08-14T06:50:23;6.65;;;5.93;;
68196;SDS011;55019;49.382;11.358;2022-08-14T06:52:51;6.82;;;6.15;;
68196;SDS011;55019;49.382;11.358;2022-08-14T06:55:16;9.70;;;6.20;;
68196;SDS011;55019;49.382;11.358;2022-08-14T06:57:43;6.55;;;5.78;;
68196;SDS011;55019;49.382;11.358;2022-08-14T07:00:13;8.00;;;6.30;;
68196;SDS011;55019;49.382;11.358;2022-08-14T07:02:41;6.03;;;5.47;;
68196;SDS011;55019;49.382;11.358;2022-08-14T07:05:25;6.68;;;5.57;;
68196;SDS011;55019;49.382;11.358;2022-08-14T07:08:13;5.80;;;5.30;;
68196;SDS011;55019;49.382;11.358;2022-08-14T07:10:43;5.80;;;5.30;;
68196;SDS011;55019;49.382;11.358;2022-08-14T07:13:10;6.43;;;5.80;;
68196;SDS011;55019;49.382;11.358;2022-08-14T07:15:38;6.93;;;5.30;;
68196;SDS011;55019;49.382;11.358;2022-08-14T07:18:04;5.57;;;5.07;;
68196;SDS011;55019;49.382;11.358;2022-08-14T07:20:31;8.05;;;4.85;;
68196;SDS011;55019;49.382;11.358;2022-08-14T07:23:01;6.65;;;4.97;;
68196;SDS011;55019;49.382;11.358;2022-08-14T07:25:31;6.30;;;5.68;;
68196;SDS011;55019;49.382;11.358;2022-08-14T07:27:57;5.53;;;5.10;;
68196;SDS011;55019;49.382;11.358;2022-08-14T07:30:22;5.05;;;4.65;;
68196;SDS011;55019;49.382;11.358;2022-08-14T07:32:49;6.65;;;5.28;;
68196;SDS011;55019;49.382;11.358;2022-08-14T07:35:14;5.30;;;4.90;;
68196;SDS011;55019;49.382;11.358;2022-08-14T07:37:40;5.10;;;4.70;;
68196;SDS011;55019;49.382;11.358;2022-08-14T07:40:09;4.75;;;4.45;;
68196;SDS011;55019;49.382;11.358;2022-08-14T07:42:35;5.60;;;5.15;;
68196;SDS011;55019;49.382;11.358;2022-08-14T07:45:01;5.40;;;4.57;;
68196;SDS011;55019;49.382;11.358;2022-08-14T07:47:26;4.90;;;4.50;;
68196;SDS011;55019;49.382;11.358;2022-08-14T07:50:02;5.43;;;4.40;;
68196;SDS011;55019;49.382;11.358;2022-08-14T07:52:32;4.97;;;4.57;;
68196;SDS011;55019;49.382;11.358;2022-08-14T07:54:58;4.63;;;4.30;;
68196;SDS011;55019;49.382;11.358;2022-08-14T07:57:24;4.70;;;4.20;;
68196;SDS011;55019;49.382;11.358;2022-08-14T07:59:51;4.45;;;4.10;;
68196;SDS011;55019;49.382;11.358;2022-08-14T08:02:17;4.18;;;3.80;;
68196;SDS011;55019;49.382;11.358;2022-08-14T08:04:44;4.72;;;4.32;;
68196;SDS011;55019;49.382;11.358;2022-08-14T08:07:11;4.67;;;4.23;;
68196;SDS011;55019;49.382;11.358;2022-08-14T08:09:37;4.20;;;3.80;;
68196;SDS011;55019;49.382;11.358;2022-08-14T08:12:12;4.70;;;4.40;;
68196;SDS011;55019;49.382;11.358;2022-08-14T08:14:40;4.65;;;4.28;;
68196;SDS011;55019;49.382;11.358;2022-08-14T08:17:07;4.60;;;4.20;;
68196;SDS011;55019;49.382;11.358;2022-08-14T08:19:33;4.37;;;3.97;;
68196;SDS011;55019;49.382;11.358;2022-08-14T08:21:58;4.82;;;4.47;;
68196;SDS011;55019;49.382;11.358;2022-08-14T08:24:27;4.77;;;4.40;;
68196;SDS011;55019;49.382;11.358;2022-08-14T08:26:53;5.85;;;4.30;;
68196;SDS011;55019;49.382;11.358;2022-08-14T08:29:19;4.27;;;3.97;;
68196;SDS011;55019;49.382;11.358;2022-08-14T08:31:46;4.40;;;4.10;;
68196;SDS011;55019;49.382;11.358;2022-08-14T08:34:16;4.47;;;4.18;;
68196;SDS011;55019;49.382;11.358;2022-08-14T08:36:43;4.60;;;4.20;;
68196;SDS011;55019;49.382;11.358;2022-08-14T08:39:09;5.15;;;4.65;;
68196;SDS011;55019;49.382;11.358;2022-08-14T08:41:42;4.43;;;4.13;;
68196;SDS011;55019;49.382;11.358;2022-08-14T08:44:09;6.03;;;3.92;;
68196;SDS011;55019;49.382;11.358;2022-08-14T08:46:38;4.22;;;3.92;;
68196;SDS011;55019;49.382;11.358;2022-08-14T08:49:06;4.40;;;4.00;;
68196;SDS011;55019;49.382;11.358;2022-08-14T08:51:33;4.43;;;4.13;;
68196;SDS011;55019;49.382;11.358;2022-08-14T08:54:02;4.17;;;3.87;;
68196;SDS011;55019;49.382;11.358;2022-08-14T08:56:42;4.43;;;4.13;;
68196;SDS011;55019;49.382;11.358;2022-08-14T08:59:15;4.80;;;4.40;;
68196;SDS011;55019;49.382;11.358;2022-08-14T09:01:45;4.47;;;3.97;;
68196;SDS011;55019;49.382;11.358;2022-08-14T09:04:16;4.50;;;4.20;;
68196;SDS011;55019;49.382;11.358;2022-08-14T09:06:43;4.63;;;4.23;;
68196;SDS011;55019;49.382;11.358;2022-08-14T09:09:24;5.55;;;5.15;;
68196;SDS011;55019;49.382;11.358;2022-08-14T09:11:54;5.55;;;5.05;;
68196;SDS011;55019;49.382;11.358;2022-08-14T09:14:22;5.72;;;5.32;;
68196;SDS011;55019;49.382;11.358;2022-08-14T09:16:49;5.70;;;5.03;;
68196;SDS011;55019;49.382;11.358;2022-08-14T09:19:16;5.60;;;5.20;;
68196;SDS011;55019;49.382;11.358;2022-08-14T09:21:41;5.40;;;4.85;;
68196;SDS011;55019;49.382;11.358;2022-08-14T09:24:07;5.55;;;5.05;;
68196;SDS011;55019;49.382;11.358;2022-08-14T09:26:34;5.27;;;4.87;;
68196;SDS011;55019;49.382;11.358;2022-08-14T09:29:02;6.30;;;5.18;;
68196;SDS011;55019;49.382;11.358;2022-08-14T09:31:28;6.28;;;5.68;;
68196;SDS011;55019;49.382;11.358;2022-08-14T09:34:07;5.78;;;5.25;;
68196;SDS011;55019;49.382;11.358;2022-08-14T09:45:27;5.97;;;4.30;;
68196;SDS011;55019;49.382;11.358;2022-08-14T09:47:58;4.80;;;4.35;;
68196;SDS011;55019;49.382;11.358;2022-08-14T09:50:28;4.40;;;3.97;;
68196;SDS011;55019;49.382;11.358;2022-08-14T09:53:08;3.72;;;3.53;;
68196;SDS011;55019;49.382;11.358;2022-08-14T09:55:35;4.10;;;3.80;;
68196;SDS011;55019;49.382;11.358;2022-08-14T09:58:14;4.57;;;4.18;;
68196;SDS011;55019;49.382;11.358;2022-08-14T10:00:48;4.73;;;4.27;;
68196;SDS011;55019;49.382;11.358;2022-08-14T10:06:17;5.75;;;3.85;;
68196;SDS011;55019;49.382;11.358;2022-08-14T10:08:50;4.20;;;3.90;;
68196;SDS011;55019;49.382;11.358;2022-08-14T10:11:31;5.35;;;4.03;;
68196;SDS011;55019;49.382;11.358;2022-08-14T10:14:17;4.67;;;4.27;;
68196;SDS011;55019;49.382;11.358;2022-08-14T10:16:48;5.93;;;4.80;;
68196;SDS011;55019;49.382;11.358;2022-08-14T10:19:19;6.28;;;4.63;;
68196;SDS011;55019;49.382;11.358;2022-08-14T10:24:52;4.90;;;4.50;;
68196;SDS011;55019;49.382;11.358;2022-08-14T10:27:19;5.17;;;4.53;;
68196;SDS011;55019;49.382;11.358;2022-08-14T10:29:51;7.07;;;4.93;;
68196;SDS011;55019;49.382;11.358;2022-08-14T10:32:19;6.22;;;5.00;;
68196;SDS011;55019;49.382;11.358;2022-08-14T10:34:47;5.35;;;4.88;;
68196;SDS011;55019;49.382;11.358;2022-08-14T10:37:14;5.70;;;5.20;;
68196;SDS011;55019;49.382;11.358;2022-08-14T10:39:44;5.37;;;4.97;;
68196;SDS011;55019;49.382;11.358;2022-08-14T10:42:22;9.82;;;5.05;;
68196;SDS011;55019;49.382;11.358;2022-08-14T10:44:47;4.57;;;4.22;;
68196;SDS011;55019;49.382;11.358;2022-08-14T10:47:15;6.50;;;5.13;;
68196;SDS011;55019;49.382;11.358;2022-08-14T10:49:54;4.80;;;4.33;;
68196;SDS011;55019;49.382;11.358;2022-08-14T10:52:22;4.95;;;4.50;;
68196;SDS011;55019;49.382;11.358;2022-08-14T10:54:49;7.82;;;5.35;;
68196;SDS011;55019;49.382;11.358;2022-08-14T10:57:23;4.97;;;4.57;;
68196;SDS011;55019;49.382;11.358;2022-08-14T10:59:54;4.95;;;4.47;;
68196;SDS011;55019;49.382;11.358;2022-08-14T11:02:39;4.97;;;4.47;;
68196;SDS011;55019;49.382;11.358;2022-08-14T11:07:41;4.95;;;4.55;;
68196;SDS011;55019;49.382;11.358;2022-08-14T11:13:20;4.93;;;4.47;;
68196;SDS011;55019;49.382;11.358;2022-08-14T11:15:47;4.70;;;4.30;;
68196;SDS011;55019;49.382;11.358;2022-08-14T11:18:14;6.15;;;5.65;;
68196;SDS011;55019;49.382;11.358;2022-08-14T11:20:48;4.25;;;3.95;;
68196;SDS011;55019;49.382;11.358;2022-08-14T11:23:15;5.50;;;5.00;;
68196;SDS011;55019;49.382;11.358;2022-08-14T11:25:44;5.78;;;5.32;;
68196;SDS011;55019;49.382;11.358;2022-08-14T11:28:13;6.50;;;5.90;;
68196;SDS011;55019;49.382;11.358;2022-08-14T11:30:43;5.53;;;5.13;;
68196;SDS011;55019;49.382;11.358;2022-08-14T11:33:09;6.38;;;4.72;;
68196;SDS011;55019;49.382;11.358;2022-08-14T11:35:35;5.53;;;5.13;;
68196;SDS011;55019;49.382;11.358;2022-08-14T11:38:03;4.85;;;4.45;;
68196;SDS011;55019;49.382;11.358;2022-08-14T11:40:36;5.93;;;4.07;;
68196;SDS011;55019;49.382;11.358;2022-08-14T11:43:03;4.60;;;4.20;;
68196;SDS011;55019;49.382;11.358;2022-08-14T11:45:35;4.65;;;4.30;;
68196;SDS011;55019;49.382;11.358;2022-08-14T11:48:23;4.50;;;4.10;;
68196;SDS011;55019;49.382;11.358;2022-08-14T11:50:49;4.03;;;3.72;;
68196;SDS011;55019;49.382;11.358;2022-08-14T11:56:13;3.80;;;3.50;;
68196;SDS011;55019;49.382;11.358;2022-08-14T11:58:39;4.00;;;3.70;;
68196;SDS011;55019;49.382;11.358;2022-08-14T12:01:13;3.77;;;3.47;;
68196;SDS011;55019;49.382;11.358;2022-08-14T12:03:40;3.50;;;3.30;;
68196;SDS011;55019;49.382;11.358;2022-08-14T12:06:14;4.10;;;3.80;;
68196;SDS011;55019;49.382;11.358;2022-08-14T12:08:41;4.55;;;4.25;;
68196;SDS011;55019;49.382;11.358;2022-08-14T12:11:13;3.90;;;3.60;;
68196;SDS011;55019;49.382;11.358;2022-08-14T12:13:42;3.95;;;3.65;;
68196;SDS011;55019;49.382;11.358;2022-08-14T12:16:09;3.95;;;3.63;;
68196;SDS011;55019;49.382;11.358;2022-08-14T12:18:39;4.38;;;3.90;;
68196;SDS011;55019;49.382;11.358;2022-08-14T12:23:36;4.00;;;3.78;;
68196;SDS011;55019;49.382;11.358;2022-08-14T12:26:02;3.78;;;3.47;;
68196;SDS011;55019;49.382;11.358;2022-08-14T12:28:35;4.23;;;3.83;;
68196;SDS011;55019;49.382;11.358;2022-08-14T12:31:16;3.70;;;3.50;;
68196;SDS011;55019;49.382;11.358;2022-08-14T12:33:54;4.13;;;3.72;;
68196;SDS011;55019;49.382;11.358;2022-08-14T12:36:26;4.82;;;4.32;;
68196;SDS011;55019;49.382;11.358;2022-08-14T12:39:02;4.30;;;4.10;;
68196;SDS011;55019;49.382;11.358;2022-08-14T12:41:47;4.53;;;4.10;;
68196;SDS011;55019;49.382;11.358;2022-08-14T12:44:16;5.55;;;4.13;;
68196;SDS011;55019;49.382;11.358;2022-08-14T12:47:00;4.40;;;4.10;;
68196;SDS011;55019;49.382;11.358;2022-08-14T12:49:30;3.85;;;3.63;;
68196;SDS011;55019;49.382;11.358;2022-08-14T12:51:59;3.97;;;3.77;;
68196;SDS011;55019;49.382;11.358;2022-08-14T12:54:27;4.93;;;3.58;;
68196;SDS011;55019;49.382;11.358;2022-08-14T12:57:14;3.70;;;3.40;;
68196;SDS011;55019;49.382;11.358;2022-08-14T12:59:39;4.38;;;4.00;;
68196;SDS011;55019;49.382;11.358;2022-08-14T13:02:04;3.90;;;3.70;;
68196;SDS011;55019;49.382;11.358;2022-08-14T13:04:30;6.20;;;5.70;;
68196;SDS011;55019;49.382;11.358;2022-08-14T13:06:59;4.32;;;4.03;;
68196;SDS011;55019;49.382;11.358;2022-08-14T13:09:31;4.13;;;3.73;;
68196;SDS011;55019;49.382;11.358;2022-08-14T13:11:56;4.15;;;3.92;;
68196;SDS011;55019;49.382;11.358;2022-08-14T13:14:32;5.10;;;3.75;;
68196;SDS011;55019;49.382;11.358;2022-08-14T13:16:58;4.03;;;3.80;;
68196;SDS011;55019;49.382;11.358;2022-08-14T13:19:27;3.95;;;3.55;;
68196;SDS011;55019;49.382;11.358;2022-08-14T13:21:54;5.78;;;4.10;;
68196;SDS011;55019;49.382;11.358;2022-08-14T13:24:21;5.15;;;3.80;;
68196;SDS011;55019;49.382;11.358;2022-08-14T13:26:51;4.75;;;4.35;;
68196;SDS011;55019;49.382;11.358;2022-08-14T13:29:21;4.13;;;3.83;;
68196;SDS011;55019;49.382;11.358;2022-08-14T13:31:49;4.38;;;3.97;;
68196;SDS011;55019;49.382;11.358;2022-08-14T13:34:18;6.25;;;4.38;;
68196;SDS011;55019;49.382;11.358;2022-08-14T13:36:45;4.75;;;4.35;;
68196;SDS011;55019;49.382;11.358;2022-08-14T13:39:13;5.97;;;4.50;;
68196;SDS011;55019;49.382;11.358;2022-08-14T13:41:43;4.95;;;4.22;;
68196;SDS011;55019;49.382;11.358;2022-08-14T13:44:11;4.78;;;4.38;;
68196;SDS011;55019;49.382;11.358;2022-08-14T13:46:39;4.95;;;4.35;;
68196;SDS011;55019;49.382;11.358;2022-08-14T13:49:05;4.37;;;4.10;;
68196;SDS011;55019;49.382;11.358;2022-08-14T13:51:36;4.00;;;3.80;;
68196;SDS011;55019;49.382;11.358;2022-08-14T13:54:04;4.57;;;4.18;;
68196;SDS011;55019;49.382;11.358;2022-08-14T13:56:39;5.05;;;4.60;;
68196;SDS011;55019;49.382;11.358;2022-08-14T13:59:05;4.90;;;4.60;;
68196;SDS011;55019;49.382;11.358;2022-08-14T14:01:34;4.28;;;4.03;;
68196;SDS011;55019;49.382;11.358;2022-08-14T14:04:02;3.93;;;3.63;;
68196;SDS011;55019;49.382;11.358;2022-08-14T14:06:29;3.72;;;3.53;;
68196;SDS011;55019;49.382;11.358;2022-08-14T14:08:57;4.20;;;3.88;;
68196;SDS011;55019;49.382;11.358;2022-08-14T14:11:23;4.80;;;4.40;;
68196;SDS011;55019;49.382;11.358;2022-08-14T14:13:50;4.50;;;4.10;;
68196;SDS011;55019;49.382;11.358;2022-08-14T14:16:16;4.35;;;3.97;;
68196;SDS011;55019;49.382;11.358;2022-08-14T14:18:49;4.00;;;3.65;;
68196;SDS011;55019;49.382;11.358;2022-08-14T14:21:19;4.68;;;4.30;;
68196;SDS011;55019;49.382;11.358;2022-08-14T14:23:46;5.07;;;4.67;;
68196;SDS011;55019;49.382;11.358;2022-08-14T14:26:12;4.70;;;4.30;;
68196;SDS011;55019;49.382;11.358;2022-08-14T14:28:42;5.43;;;4.40;;
68196;SDS011;55019;49.382;11.358;2022-08-14T14:31:14;5.83;;;5.33;;
68196;SDS011;55019;49.382;11.358;2022-08-14T14:33:46;6.28;;;5.78;;
68196;SDS011;55019;49.382;11.358;2022-08-14T14:36:21;4.65;;;4.28;;
68196;SDS011;55019;49.382;11.358;2022-08-14T14:39:01;5.72;;;4.97;;
68196;SDS011;55019;49.382;11.358;2022-08-14T14:41:32;5.47;;;4.95;;
68196;SDS011;55019;49.382;11.358;2022-08-14T14:44:02;4.93;;;4.53;;
68196;SDS011;55019;49.382;11.358;2022-08-14T14:46:34;4.95;;;4.45;;
68196;SDS011;55019;49.382;11.358;2022-08-14T14:49:00;4.88;;;4.47;;
68196;SDS011;55019;49.382;11.358;2022-08-14T14:51:28;4.78;;;4.47;;
68196;SDS011;55019;49.382;11.358;2022-08-14T14:53:53;5.13;;;4.63;;
68196;SDS011;55019;49.382;11.358;2022-08-14T14:56:21;5.57;;;5.10;;
68196;SDS011;55019;49.382;11.358;2022-08-14T14:58:48;5.10;;;4.70;;
68196;SDS011;55019;49.382;11.358;2022-08-14T15:01:13;5.30;;;5.00;;
68196;SDS011;55019;49.382;11.358;2022-08-14T15:03:44;5.30;;;4.88;;
68196;SDS011;55019;49.382;11.358;2022-08-14T15:06:16;5.80;;;4.40;;
68196;SDS011;55019;49.382;11.358;2022-08-14T15:08:42;4.70;;;4.30;;
68196;SDS011;55019;49.382;11.358;2022-08-14T15:11:20;4.43;;;4.13;;
68196;SDS011;55019;49.382;11.358;2022-08-14T15:13:46;4.50;;;4.20;;